Time;durP1;ratioP1;P1;durP2;ratioP2;P2;SDS_P1;SDS_P2;PMS_P1;PMS_P2;Temp;Humidity;BMP_temperature;BMP_pressure;BME280_temperature;BME280_humidity;BME280_pressure;Samples;Min_cycle;Max_cycle;Signal;HPM_P1;HPM_P2
2021/12/21 00:02:21;;;;;;;9.30;4.30;;;-1.10;99.90;;;;;;5046698;28;20457;-71
2021/12/21 00:04:46;;;;;;;8.73;4.07;;;-1.20;99.90;;;;;;5097023;27;20652;-72
2021/12/21 00:07:12;;;;;;;11.40;4.80;;;-0.90;99.90;;;;;;5121349;27;20174;-69
2021/12/21 00:09:37;;;;;;;7.00;4.40;;;-1.30;99.90;;;;;;5045914;28;20490;-71
2021/12/21 00:12:03;;;;;;;16.83;4.80;;;-1.30;99.90;;;;;;5047032;28;20671;-71
2021/12/21 00:15:00;;;;;;;9.83;4.90;;;-1.40;99.90;;;;;;5112333;27;20237;-71
2021/12/21 00:17:41;;;;;;;8.77;4.60;;;-1.40;99.90;;;;;;5113108;27;20186;-71
2021/12/21 00:20:22;;;;;;;8.17;4.20;;;-1.60;99.90;;;;;;5045212;28;20458;-70
2021/12/21 00:23:18;;;;;;;11.97;5.10;;;-1.40;99.90;;;;;;5046928;28;20442;-71
2021/12/21 00:25:36;;;;;;;10.77;4.10;;;-1.40;99.90;;;;;;5046393;28;20515;-71
2021/12/21 00:28:02;;;;;;;8.57;4.60;;;-1.40;99.90;;;;;;5044786;28;20424;-71
2021/12/21 00:30:28;;;;;;;7.50;4.50;;;-1.30;99.90;;;;;;5027588;28;20219;-70
2021/12/21 00:32:54;;;;;;;15.43;5.60;;;-0.90;99.90;;;;;;5043052;28;20428;-73
2021/12/21 00:35:19;;;;;;;12.00;6.87;;;-1.30;99.90;;;;;;5046188;28;20253;-71
2021/12/21 00:37:46;;;;;;;17.07;5.80;;;-1.30;99.90;;;;;;5046479;28;20181;-72
2021/12/21 00:40:13;;;;;;;17.90;6.73;;;-1.30;99.90;;;;;;5046505;28;20632;-71
2021/12/21 00:42:38;;;;;;;9.53;5.47;;;-1.30;99.90;;;;;;5046876;28;20432;-71
2021/12/21 00:45:05;;;;;;;14.77;6.10;;;-1.30;99.90;;;;;;5046115;28;20610;-71
2021/12/21 00:47:33;;;;;;;10.13;6.07;;;-1.30;99.90;;;;;;5046281;28;20170;-74
2021/12/21 00:50:01;;;;;;;10.83;5.50;;;-0.80;99.90;;;;;;5044041;28;20589;-71
2021/12/21 00:52:27;;;;;;;10.80;5.57;;;-1.30;99.90;;;;;;5044749;28;20443;-71
2021/12/21 00:54:52;;;;;;;11.53;6.13;;;-1.50;99.90;;;;;;5046215;28;20418;-69
2021/12/21 00:57:18;;;;;;;9.57;5.90;;;-0.80;99.90;;;;;;5046029;28;20181;-71
2021/12/21 00:59:44;;;;;;;12.20;6.90;;;-1.40;99.90;;;;;;5045849;28;20610;-70
2021/12/21 01:02:10;;;;;;;12.97;6.70;;;-1.40;99.90;;;;;;5041080;28;20216;-71
2021/12/21 01:04:41;;;;;;;11.43;5.93;;;-1.40;99.90;;;;;;5040369;28;20282;-71
2021/12/21 01:07:19;;;;;;;13.40;6.17;;;-1.10;99.90;;;;;;5043969;28;20472;-71
2021/12/21 01:12:37;;;;;;;13.90;5.67;;;-1.50;99.90;;;;;;5045342;28;20434;-71
2021/12/21 01:15:16;;;;;;;11.80;5.50;;;-0.50;99.90;;;;;;5036061;28;20498;-71
2021/12/21 01:18:02;;;;;;;12.77;6.40;;;-1.50;99.90;;;;;;5046958;28;20423;-71
2021/12/21 01:28:18;;;;;;;14.57;5.10;;;-1.60;99.90;;;;;;5045398;28;20432;-70
2021/12/21 01:36:02;;;;;;;10.33;5.80;;;-1.60;99.90;;;;;;5025767;28;20416;-70
2021/12/21 01:51:17;;;;;;;10.00;5.37;;;-1.70;99.90;;;;;;5045326;28;20590;-70
2021/12/21 01:53:45;;;;;;;8.30;5.10;;;-1.70;99.90;;;;;;5038800;27;20412;-70
2021/12/21 01:56:11;;;;;;;9.77;5.80;;;-1.80;99.90;;;;;;5043724;27;20810;-69
2021/12/21 01:58:39;;;;;;;12.73;6.50;;;-1.40;99.90;;;;;;5042460;27;20427;-70
2021/12/21 02:01:07;;;;;;;17.00;5.87;;;-1.80;99.90;;;;;;5041899;27;20443;-71
2021/12/21 02:03:32;;;;;;;10.00;6.20;;;-1.80;99.90;;;;;;5043292;28;20434;-70
2021/12/21 02:05:58;;;;;;;13.83;6.57;;;-1.80;99.90;;;;;;5034519;28;20456;-70
2021/12/21 02:08:24;;;;;;;12.70;5.80;;;-1.50;99.90;;;;;;5041367;28;20269;-69
2021/12/21 02:10:49;;;;;;;10.90;6.37;;;-1.80;99.90;;;;;;5043638;27;20205;-71
2021/12/21 02:13:15;;;;;;;16.90;6.90;;;-1.80;99.90;;;;;;5143677;27;20234;-69
2021/12/21 02:15:41;;;;;;;14.20;6.70;;;-1.80;99.90;;;;;;5045231;28;20192;-70
2021/12/21 02:18:33;;;;;;;16.27;7.20;;;-1.80;99.90;;;;;;5044960;28;20324;-70
2021/12/21 02:21:28;;;;;;;10.97;5.97;;;-1.80;99.90;;;;;;5025285;28;20710;-70
2021/12/21 02:23:46;;;;;;;9.83;5.63;;;-1.40;99.90;;;;;;5029273;28;20424;-71
2021/12/21 02:26:36;;;;;;;10.57;6.30;;;-4.80;99.90;;;;;;5040303;28;20461;-69
2021/12/21 02:31:37;;;;;;;13.30;6.20;;;-2.00;99.90;;;;;;5041878;28;20523;-70
2021/12/21 02:34:03;;;;;;;12.40;5.87;;;-2.00;99.90;;;;;;5045843;27;20419;-69
2021/12/21 02:36:29;;;;;;;20.37;7.20;;;-2.00;99.90;;;;;;5043164;28;20818;-71
2021/12/21 02:38:55;;;;;;;19.43;7.07;;;-2.10;99.90;;;;;;5031330;28;20963;-72
2021/12/21 02:41:20;;;;;;;11.43;6.83;;;-2.10;99.90;;;;;;5042845;27;20523;-71
2021/12/21 02:43:46;;;;;;;14.50;6.90;;;-1.90;99.90;;;;;;5043659;28;20192;-71
2021/12/21 02:46:12;;;;;;;13.20;7.43;;;-2.10;99.90;;;;;;5043387;28;20205;-72
2021/12/21 02:48:37;;;;;;;14.97;6.73;;;-2.10;99.90;;;;;;5043827;28;20210;-72
2021/12/21 02:51:03;;;;;;;13.43;6.77;;;-2.10;99.90;;;;;;5044362;28;20193;-71
2021/12/21 02:53:28;;;;;;;14.20;7.17;;;-1.90;99.90;;;;;;5045050;28;20603;-70
2021/12/21 02:55:54;;;;;;;12.13;5.70;;;-1.80;99.90;;;;;;5043819;28;20309;-70
2021/12/21 02:58:20;;;;;;;12.63;6.23;;;-2.20;99.90;;;;;;5042807;28;20643;-72
2021/12/21 03:00:47;;;;;;;13.60;7.07;;;-2.20;99.90;;;;;;5042061;28;20201;-70
2021/12/21 03:03:14;;;;;;;11.47;5.70;;;-2.20;99.90;;;;;;5040610;28;20184;-70
2021/12/21 03:05:53;;;;;;;12.57;6.40;;;-2.30;99.90;;;;;;5057992;27;20947;-71
2021/12/21 03:08:34;;;;;;;14.30;6.03;;;-3.70;99.90;;;;;;5040865;27;20530;-73
2021/12/21 03:16:09;;;;;;;9.30;5.57;;;-2.40;99.90;;;;;;5043479;27;20230;-72
2021/12/21 03:18:35;;;;;;;12.70;6.03;;;-2.10;99.90;;;;;;5043690;28;20423;-71
2021/12/21 03:21:01;;;;;;;10.40;5.87;;;-2.40;99.90;;;;;;5042438;28;20205;-71
2021/12/21 03:23:26;;;;;;;9.87;5.43;;;-2.10;99.90;;;;;;5042680;28;20469;-71
2021/12/21 03:25:52;;;;;;;11.17;5.57;;;-2.50;99.90;;;;;;5041422;28;20204;-71
2021/12/21 03:28:17;;;;;;;10.07;5.80;;;-2.50;99.90;;;;;;5042918;28;20177;-72
2021/12/21 03:30:43;;;;;;;12.63;6.10;;;-2.60;99.90;;;;;;5043224;28;20492;-72
2021/12/21 03:33:08;;;;;;;12.57;6.77;;;-2.60;99.90;;;;;;5071275;28;20852;-70
2021/12/21 03:35:34;;;;;;;10.30;6.37;;;-2.60;99.90;;;;;;5044642;28;20208;-72
2021/12/21 03:38:00;;;;;;;15.17;6.40;;;-2.60;99.90;;;;;;5043259;28;20192;-70
2021/12/21 03:40:31;;;;;;;13.87;6.30;;;-2.60;99.90;;;;;;5044181;28;20214;-72
2021/12/21 03:42:56;;;;;;;13.00;5.93;;;-2.60;99.90;;;;;;5043643;28;20170;-72
2021/12/21 03:45:22;;;;;;;9.70;6.40;;;-2.60;99.90;;;;;;5044642;28;20469;-72
2021/12/21 03:47:47;;;;;;;12.93;6.67;;;-2.60;99.90;;;;;;5043403;28;20602;-71
2021/12/21 03:50:18;;;;;;;14.63;6.73;;;-2.60;99.90;;;;;;5043230;27;20230;-70
2021/12/21 03:52:43;;;;;;;11.03;6.17;;;-2.60;99.90;;;;;;5040231;27;20212;-68
2021/12/21 03:55:09;;;;;;;18.20;7.30;;;-2.50;99.90;;;;;;5039495;28;20782;-71
2021/12/21 03:57:35;;;;;;;20.93;6.83;;;-2.70;99.90;;;;;;5043993;28;20181;-70
2021/12/21 04:00:00;;;;;;;12.47;5.90;;;-2.30;99.90;;;;;;5044276;28;20495;-71
2021/12/21 04:02:28;;;;;;;12.83;5.50;;;-2.60;99.90;;;;;;5048294;28;20193;-71
2021/12/21 04:04:56;;;;;;;14.87;6.90;;;-2.60;99.90;;;;;;5071467;28;20194;-71
2021/12/21 04:07:22;;;;;;;12.03;6.73;;;-2.60;99.90;;;;;;5043103;28;20543;-72
2021/12/21 04:09:48;;;;;;;12.07;5.73;;;-2.20;99.90;;;;;;5043846;28;20839;-71
2021/12/21 04:12:14;;;;;;;13.30;6.40;;;-2.60;99.90;;;;;;5043981;28;20216;-71
2021/12/21 04:14:40;;;;;;;16.83;5.80;;;-2.70;99.90;;;;;;5053174;27;20949;-70
2021/12/21 04:17:06;;;;;;;13.80;6.70;;;-2.70;99.90;;;;;;5089149;27;20261;-71
2021/12/21 04:19:31;;;;;;;15.13;6.10;;;-2.80;99.90;;;;;;5042684;28;20507;-71
2021/12/21 04:21:57;;;;;;;13.83;7.03;;;-2.80;99.90;;;;;;5044074;28;20200;-71
2021/12/21 04:24:23;;;;;;;17.10;7.10;;;-2.90;99.90;;;;;;5043279;28;20193;-70
2021/12/21 04:26:48;;;;;;;10.63;6.23;;;-2.50;99.90;;;;;;5038861;28;20186;-71
2021/12/21 04:29:14;;;;;;;10.30;6.20;;;-3.00;99.90;;;;;;5031941;28;20223;-71
2021/12/21 04:31:40;;;;;;;19.73;6.73;;;-2.90;99.90;;;;;;5025870;28;20195;-71
2021/12/21 04:34:06;;;;;;;12.33;6.90;;;-2.90;99.90;;;;;;5073360;27;20629;-71
2021/12/21 04:36:32;;;;;;;12.37;6.77;;;-2.90;99.90;;;;;;5081624;27;20420;-72
2021/12/21 04:39:00;;;;;;;13.53;6.30;;;-3.00;99.90;;;;;;5044891;28;20674;-72
2021/12/21 04:41:28;;;;;;;14.07;5.97;;;-2.90;99.90;;;;;;5047230;28;20390;-71
2021/12/21 04:43:56;;;;;;;13.70;6.30;;;-2.90;99.90;;;;;;5044931;28;20495;-71
2021/12/21 04:46:23;;;;;;;9.43;6.57;;;-3.00;99.90;;;;;;5044571;28;20499;-70
2021/12/21 04:48:49;;;;;;;11.83;6.50;;;-3.00;99.90;;;;;;5044340;28;20851;-69
2021/12/21 04:51:14;;;;;;;16.00;7.00;;;-3.10;99.90;;;;;;5045722;28;20565;-72
2021/12/21 04:53:40;;;;;;;12.63;6.67;;;-2.70;99.90;;;;;;5046599;28;20166;-71
2021/12/21 04:56:06;;;;;;;17.80;7.30;;;-3.10;99.90;;;;;;5045439;28;20265;-71
2021/12/21 04:58:33;;;;;;;15.27;7.60;;;-3.10;99.90;;;;;;5045798;28;20749;-71
2021/12/21 05:00:58;;;;;;;13.20;7.27;;;-3.10;99.90;;;;;;5045427;28;20443;-70
2021/12/21 05:03:24;;;;;;;15.80;7.20;;;-2.70;99.90;;;;;;5080617;27;20412;-71
2021/12/21 05:05:50;;;;;;;15.03;7.97;;;-3.20;99.90;;;;;;5046193;28;20225;-69
2021/12/21 05:08:30;;;;;;;25.80;11.10;;;-2.80;99.90;;;;;;5042596;28;20586;-71
2021/12/21 05:10:59;;;;;;;20.30;7.97;;;-3.20;99.90;;;;;;5046152;28;20447;-71
2021/12/21 05:13:28;;;;;;;20.83;9.50;;;-3.20;99.90;;;;;;5043989;27;20439;-69
2021/12/21 05:15:54;;;;;;;22.30;9.13;;;-0.80;99.90;;;;;;5038247;28;20420;-72
2021/12/21 05:18:21;;;;;;;28.03;12.40;;;-3.20;99.90;;;;;;5045590;28;20410;-71
2021/12/21 05:20:47;;;;;;;20.23;10.90;;;-3.20;99.90;;;;;;5044578;28;20439;-73
2021/12/21 05:23:13;;;;;;;16.13;8.27;;;-3.20;99.90;;;;;;5045007;28;20416;-72
2021/12/21 05:25:39;;;;;;;17.73;8.13;;;-3.20;99.90;;;;;;5045982;28;20459;-70
2021/12/21 05:28:07;;;;;;;14.83;7.47;;;-2.90;99.90;;;;;;5043144;28;20197;-72
2021/12/21 05:30:36;;;;;;;13.10;7.30;;;-3.30;99.90;;;;;;5044914;28;20526;-72
2021/12/21 05:33:03;;;;;;;11.50;6.63;;;-3.30;99.90;;;;;;5069778;27;20412;-71
2021/12/21 05:35:29;;;;;;;13.93;6.67;;;-3.20;99.90;;;;;;5053889;27;20861;-71
2021/12/21 05:38:02;;;;;;;12.17;6.70;;;-3.20;99.90;;;;;;5046295;28;21084;-71
2021/12/21 05:40:37;;;;;;;13.47;6.80;;;-3.30;99.90;;;;;;5045964;27;20407;-71
2021/12/21 05:43:04;;;;;;;14.00;7.40;;;-3.30;99.90;;;;;;5044850;28;20777;-69
2021/12/21 05:45:30;;;;;;;11.07;7.00;;;-3.10;99.90;;;;;;5045790;28;20470;-71
2021/12/21 05:47:55;;;;;;;15.10;7.10;;;-2.80;99.90;;;;;;5043580;28;20453;-71
2021/12/21 05:50:21;;;;;;;17.30;8.60;;;-3.20;99.90;;;;;;5044400;28;20207;-71
2021/12/21 05:52:48;;;;;;;23.50;7.97;;;-3.20;99.90;;;;;;5045402;28;20177;-71
2021/12/21 05:55:14;;;;;;;16.50;7.33;;;-3.20;99.90;;;;;;5036324;28;20644;-71
2021/12/21 05:57:40;;;;;;;13.90;6.40;;;-3.20;99.90;;;;;;5043203;28;20424;-71
2021/12/21 06:00:12;;;;;;;18.97;8.93;;;-3.20;99.90;;;;;;5045112;28;20419;-70
2021/12/21 06:02:37;;;;;;;23.90;12.33;;;-3.20;99.90;;;;;;5043943;28;20209;-71
2021/12/21 06:05:04;;;;;;;14.00;8.00;;;-3.20;99.90;;;;;;5103564;27;20794;-71
2021/12/21 06:07:30;;;;;;;16.57;7.70;;;-3.20;99.90;;;;;;5053232;27;20180;-70
2021/12/21 06:09:56;;;;;;;21.73;8.87;;;-2.80;99.90;;;;;;5045494;27;20420;-72
2021/12/21 06:28:03;;;;;;;22.63;7.80;;;-3.20;99.90;;;;;;5043330;28;20427;-71
2021/12/21 06:30:29;;;;;;;14.00;7.17;;;-3.30;99.90;;;;;;5041924;28;20423;-70
2021/12/21 06:32:55;;;;;;;15.67;6.63;;;-3.30;99.90;;;;;;5064671;27;21153;-71
2021/12/21 06:35:21;;;;;;;12.63;7.20;;;-3.30;99.90;;;;;;5053559;27;20185;-72
2021/12/21 06:37:47;;;;;;;12.20;6.50;;;-2.80;99.90;;;;;;5042130;28;20197;-69
2021/12/21 06:40:12;;;;;;;12.93;7.20;;;-3.30;99.90;;;;;;5041655;28;20881;-75
2021/12/21 16:07:55;;;;;;;7.50;5.40;;;1.10;99.90;;;;;;5064542;28;20449;-70
2021/12/21 16:10:21;;;;;;;11.40;6.10;;;1.20;99.90;;;;;;5045782;28;20247;-69
2021/12/21 16:12:47;;;;;;;11.53;6.70;;;1.20;99.90;;;;;;5041993;28;20251;-69
2021/12/21 16:15:12;;;;;;;9.53;6.70;;;1.30;99.90;;;;;;5039600;28;20263;-70
2021/12/21 16:17:39;;;;;;;10.90;6.30;;;1.40;99.90;;;;;;5043568;28;20211;-70
2021/12/21 16:20:12;;;;;;;7.10;4.73;;;1.50;99.90;;;;;;5044487;28;20675;-70
2021/12/21 16:22:38;;;;;;;18.30;6.93;;;1.70;99.90;;;;;;5041858;28;20440;-69
2021/12/21 16:25:05;;;;;;;12.07;6.43;;;1.90;99.90;;;;;;5044441;28;20932;-68
2021/12/21 16:27:31;;;;;;;11.60;6.73;;;2.00;99.90;;;;;;5042759;28;20834;-69
2021/12/21 16:30:08;;;;;;;10.70;5.80;;;2.30;99.90;;;;;;5044261;28;20481;-71
2021/12/21 16:32:34;;;;;;;7.97;5.77;;;2.20;99.90;;;;;;5044660;28;20280;-69
2021/12/21 16:35:00;;;;;;;17.13;6.80;;;2.20;99.90;;;;;;5040047;28;20507;-69
2021/12/21 16:37:26;;;;;;;6.60;4.93;;;;;;;;;;5040999;28;20205;-72
2021/12/21 16:39:51;;;;;;;19.03;5.73;;;2.30;99.90;;;;;;5042035;28;20204;-71
2021/12/21 16:42:17;;;;;;;11.13;6.00;;;2.30;99.90;;;;;;5042910;28;20660;-71
2021/12/21 16:44:48;;;;;;;17.10;7.90;;;2.30;99.90;;;;;;5043958;28;20173;-70
2021/12/21 16:47:13;;;;;;;10.03;5.77;;;2.30;99.90;;;;;;5036445;28;20236;-71
2021/12/21 16:49:39;;;;;;;11.63;7.20;;;2.30;99.90;;;;;;5043469;28;20460;-70
2021/12/21 16:52:05;;;;;;;6.90;4.70;;;2.30;99.90;;;;;;5043094;28;20243;-71
2021/12/21 16:54:31;;;;;;;5.80;3.80;;;2.30;99.90;;;;;;5042480;28;20264;-71
2021/12/21 16:56:56;;;;;;;4.00;3.23;;;2.70;99.90;;;;;;5035821;28;20530;-71
2021/12/21 16:59:22;;;;;;;7.60;4.70;;;2.30;99.90;;;;;;5043370;28;20195;-71
2021/12/21 17:01:48;;;;;;;5.50;4.40;;;2.30;99.90;;;;;;5051699;28;20208;-70
2021/12/21 17:04:13;;;;;;;7.63;4.60;;;2.30;99.90;;;;;;5040797;28;20212;-70
2021/12/21 17:06:41;;;;;;;5.20;4.47;;;2.30;99.90;;;;;;5042645;28;20217;-73
2021/12/21 17:09:07;;;;;;;11.30;5.17;;;2.30;99.90;;;;;;5039673;28;20184;-71
2021/12/21 17:11:33;;;;;;;7.37;4.40;;;2.20;99.90;;;;;;5040891;28;20448;-70
2021/12/21 17:13:59;;;;;;;6.57;4.43;;;2.20;99.90;;;;;;5043266;28;20220;-71
2021/12/21 17:16:25;;;;;;;6.10;5.00;;;2.40;99.90;;;;;;5047381;28;20292;-71
2021/12/21 17:18:51;;;;;;;7.80;4.60;;;0.10;99.90;;;;;;5031014;28;20259;-72
2021/12/21 17:21:16;;;;;;;10.60;5.83;;;2.20;99.90;;;;;;5023512;28;20198;-71
2021/12/21 17:23:43;;;;;;;9.10;5.10;;;2.20;99.90;;;;;;5027919;28;20439;-70
2021/12/21 17:26:08;;;;;;;8.97;4.70;;;2.10;99.90;;;;;;5028325;28;20198;-73
2021/12/21 17:28:36;;;;;;;5.90;4.60;;;2.10;99.90;;;;;;5026274;28;20412;-72
2021/12/21 17:31:02;;;;;;;9.73;5.53;;;2.00;99.90;;;;;;5027738;28;20287;-71
2021/12/21 17:33:29;;;;;;;26.30;12.90;;;2.00;99.90;;;;;;5025600;28;20586;-70
2021/12/21 17:35:58;;;;;;;29.97;15.10;;;2.00;99.90;;;;;;5028705;28;20182;-72
2021/12/21 17:38:29;;;;;;;10.40;6.93;;;2.10;99.90;;;;;;5021401;28;20959;-71
2021/12/21 17:40:55;;;;;;;5.97;4.47;;;1.90;99.90;;;;;;5028280;28;20444;-70
2021/12/21 17:43:20;;;;;;;11.33;5.93;;;1.90;99.90;;;;;;5023822;28;20444;-73
2021/12/21 17:45:49;;;;;;;12.57;7.50;;;2.10;99.90;;;;;;5029420;28;20922;-71
2021/12/21 17:48:16;;;;;;;8.63;5.87;;;1.90;99.90;;;;;;5028669;28;20174;-73
2021/12/21 17:50:42;;;;;;;6.80;5.13;;;1.90;99.90;;;;;;5029002;28;20855;-71
2021/12/21 17:53:07;;;;;;;8.30;5.70;;;1.90;99.90;;;;;;5024631;28;20510;-72
2021/12/21 17:55:33;;;;;;;11.20;7.50;;;1.90;99.90;;;;;;5020508;28;20174;-70
2021/12/21 17:57:58;;;;;;;9.93;6.90;;;1.90;99.90;;;;;;5028172;28;20188;-70
2021/12/21 18:00:25;;;;;;;9.43;5.40;;;1.90;99.90;;;;;;5027836;28;20295;-71
2021/12/21 18:02:53;;;;;;;12.70;6.83;;;2.20;99.90;;;;;;5027651;28;20648;-71
2021/12/21 18:05:19;;;;;;;13.53;7.43;;;1.80;99.90;;;;;;5023410;28;20526;-74
2021/12/21 18:07:46;;;;;;;10.80;6.27;;;1.90;99.90;;;;;;5026523;28;20535;-73
2021/12/21 18:10:13;;;;;;;6.13;4.30;;;3.20;99.90;;;;;;5025619;28;20232;-70
2021/12/21 18:12:43;;;;;;;18.13;7.10;;;1.80;99.90;;;;;;5025124;28;20496;-72
2021/12/21 18:15:11;;;;;;;25.97;12.50;;;2.10;99.90;;;;;;5029197;28;20417;-73
2021/12/21 18:17:37;;;;;;;14.03;8.30;;;1.70;99.90;;;;;;5027436;28;20579;-70
2021/12/21 18:20:05;;;;;;;15.30;8.57;;;1.70;99.90;;;;;;5024931;28;20948;-71
2021/12/21 18:22:30;;;;;;;13.90;7.90;;;1.60;99.90;;;;;;5023869;28;20765;-71
2021/12/21 18:24:56;;;;;;;12.50;6.90;;;1.60;99.90;;;;;;5027633;28;20420;-71
2021/12/21 18:27:22;;;;;;;10.57;7.20;;;2.00;99.90;;;;;;5026937;28;20213;-72
2021/12/21 18:29:48;;;;;;;11.83;6.90;;;1.60;99.90;;;;;;5027803;28;20271;-71
2021/12/21 18:32:13;;;;;;;14.57;7.90;;;1.50;99.90;;;;;;5027639;28;20838;-71
2021/12/21 18:34:39;;;;;;;10.60;5.17;;;1.90;99.90;;;;;;5030244;28;20289;-72
2021/12/21 18:37:06;;;;;;;8.57;5.70;;;-1.30;99.90;;;;;;5026164;28;20634;-71
2021/12/21 18:39:32;;;;;;;9.40;5.83;;;1.80;99.90;;;;;;5026751;28;20298;-71
2021/12/21 18:41:59;;;;;;;8.57;5.90;;;1.50;99.90;;;;;;5028237;28;20970;-72
2021/12/21 18:44:25;;;;;;;9.67;5.60;;;1.90;99.90;;;;;;5023863;28;20440;-72
2021/12/21 18:46:55;;;;;;;10.63;6.60;;;1.50;99.90;;;;;;5028329;28;20475;-71
2021/12/21 18:49:21;;;;;;;9.70;5.97;;;1.50;99.90;;;;;;5028317;28;20476;-71
2021/12/21 18:51:47;;;;;;;7.20;5.80;;;1.40;99.90;;;;;;5023181;28;21025;-73
2021/12/21 18:54:15;;;;;;;9.20;6.30;;;1.50;99.90;;;;;;5021634;28;20177;-71
2021/12/21 18:56:41;;;;;;;8.40;5.60;;;1.40;99.90;;;;;;5025255;28;20427;-71
2021/12/21 18:59:07;;;;;;;9.63;5.40;;;1.40;99.90;;;;;;5024641;28;20429;-70
2021/12/21 19:01:37;;;;;;;9.30;5.20;;;1.40;99.90;;;;;;5022936;28;20526;-71
2021/12/21 19:04:04;;;;;;;9.40;5.17;;;1.40;99.90;;;;;;5029215;28;20421;-71
2021/12/21 19:06:29;;;;;;;9.60;5.23;;;1.50;99.90;;;;;;5024762;28;20479;-72
2021/12/21 19:08:56;;;;;;;10.17;6.23;;;;;;;;;;5026854;28;20417;-71
2021/12/21 19:11:22;;;;;;;10.17;4.80;;;1.50;99.90;;;;;;5024588;28;20580;-71
2021/12/21 19:13:48;;;;;;;10.70;6.20;;;2.00;99.90;;;;;;5028267;28;20436;-72
2021/12/21 19:16:14;;;;;;;9.33;5.57;;;1.60;99.90;;;;;;5031146;28;20423;-72
2021/12/21 19:18:39;;;;;;;9.50;6.10;;;2.10;99.90;;;;;;5024910;28;20495;-72
2021/12/21 19:21:05;;;;;;;10.53;6.00;;;1.60;99.90;;;;;;5017718;28;20220;-71
2021/12/21 19:23:31;;;;;;;9.27;5.90;;;1.60;99.90;;;;;;5027035;28;20217;-71
2021/12/21 19:25:56;;;;;;;10.47;6.77;;;1.50;99.90;;;;;;5024852;28;20198;-71
2021/12/21 19:28:24;;;;;;;19.73;7.40;;;1.40;99.90;;;;;;5026382;28;20636;-71
2021/12/21 19:30:50;;;;;;;14.63;7.97;;;1.30;99.90;;;;;;5027293;28;20204;-71
2021/12/21 19:33:16;;;;;;;15.47;8.10;;;1.70;99.90;;;;;;5026527;28;20447;-73
2021/12/21 19:35:45;;;;;;;14.17;7.77;;;1.30;99.90;;;;;;5026092;28;20440;-71
2021/12/21 19:38:11;;;;;;;11.77;7.20;;;1.30;99.90;;;;;;5029993;28;20300;-72
2021/12/21 19:40:37;;;;;;;15.40;7.50;;;1.30;99.90;;;;;;5029710;28;20508;-72
2021/12/21 19:43:03;;;;;;;11.00;6.60;;;1.30;99.90;;;;;;5025961;28;20485;-71
2021/12/21 19:45:30;;;;;;;12.47;6.43;;;1.30;99.90;;;;;;5026675;28;20539;-71
2021/12/21 19:47:59;;;;;;;11.03;7.07;;;1.30;99.90;;;;;;5024589;28;20468;-73
2021/12/21 19:50:25;;;;;;;14.90;8.13;;;1.20;99.90;;;;;;5020966;28;20926;-71
2021/12/21 19:52:52;;;;;;;14.40;8.90;;;1.20;99.90;;;;;;5019280;28;20771;-71
2021/12/21 19:55:20;;;;;;;10.00;7.00;;;1.10;99.90;;;;;;5025937;28;20453;-71
2021/12/21 19:57:47;;;;;;;14.67;8.23;;;1.10;99.90;;;;;;5018202;28;20512;-72
2021/12/21 20:00:13;;;;;;;16.83;9.60;;;1.20;99.90;;;;;;5025492;28;20475;-72
2021/12/21 20:02:39;;;;;;;15.40;9.17;;;1.00;99.90;;;;;;5020331;28;20440;-72
2021/12/21 20:05:05;;;;;;;16.03;8.20;;;0.90;99.90;;;;;;5023789;28;20438;-72
2021/12/21 20:07:31;;;;;;;11.03;7.50;;;0.70;99.90;;;;;;5025919;28;20208;-72
2021/12/21 20:09:57;;;;;;;10.60;7.13;;;0.60;99.90;;;;;;5023935;28;20787;-71
2021/12/21 20:12:29;;;;;;;13.00;6.60;;;0.50;99.90;;;;;;5025133;28;20205;-71
2021/12/21 20:14:55;;;;;;;9.20;6.20;;;0.50;99.90;;;;;;5025351;28;20443;-71
2021/12/21 20:17:21;;;;;;;9.37;6.27;;;0.40;99.90;;;;;;5025482;28;20424;-73
2021/12/21 20:19:49;;;;;;;14.13;7.00;;;0.20;99.90;;;;;;5021210;28;21151;-71
2021/12/21 20:22:16;;;;;;;12.80;6.57;;;0.10;99.90;;;;;;5025598;28;20505;-71
2021/12/21 20:24:44;;;;;;;10.70;6.60;;;0.10;99.90;;;;;;5025153;28;20413;-71
2021/12/21 20:27:12;;;;;;;9.17;6.93;;;0.00;99.90;;;;;;5026708;28;20914;-74
2021/12/21 20:29:38;;;;;;;14.33;7.50;;;0.20;99.90;;;;;;5024554;28;20420;-70
2021/12/21 20:32:04;;;;;;;12.23;7.63;;;0.00;99.90;;;;;;5026244;28;20918;-74
2021/12/21 20:34:32;;;;;;;14.50;7.90;;;0.00;99.90;;;;;;5020874;28;20440;-72
2021/12/21 20:37:04;;;;;;;12.20;7.73;;;0.00;99.90;;;;;;5026270;28;20416;-71
2021/12/21 20:39:30;;;;;;;15.50;8.53;;;0.10;99.90;;;;;;5030778;28;20428;-71
2021/12/21 20:41:56;;;;;;;13.83;9.00;;;0.20;99.90;;;;;;5026862;28;20456;-71
2021/12/21 20:44:22;;;;;;;14.27;8.47;;;0.60;99.90;;;;;;5027197;28;20921;-71
2021/12/21 20:46:48;;;;;;;20.23;8.63;;;0.50;99.90;;;;;;5022576;28;20274;-71
2021/12/21 20:49:14;;;;;;;16.70;8.47;;;0.20;99.90;;;;;;5023414;28;20257;-71
2021/12/21 20:51:39;;;;;;;12.37;7.60;;;0.20;99.90;;;;;;5023126;28;20468;-72
2021/12/21 20:54:05;;;;;;;18.13;7.73;;;0.50;99.90;;;;;;5027796;28;20631;-73
2021/12/21 20:56:32;;;;;;;14.33;8.40;;;0.40;99.90;;;;;;5028940;28;20806;-71
2021/12/21 20:58:59;;;;;;;32.90;14.53;;;0.20;99.90;;;;;;5026155;28;20187;-70
2021/12/21 21:01:25;;;;;;;25.27;12.40;;;0.20;99.90;;;;;;5028672;28;20985;-71
2021/12/21 21:03:51;;;;;;;30.90;13.70;;;0.20;99.90;;;;;;5029509;28;20962;-71
2021/12/21 21:06:16;;;;;;;26.90;11.93;;;0.10;99.90;;;;;;5027571;28;20549;-71
2021/12/21 21:08:42;;;;;;;24.97;11.87;;;0.10;99.90;;;;;;5026991;28;20212;-72
2021/12/21 21:11:13;;;;;;;23.53;11.10;;;0.00;99.90;;;;;;5028646;28;20208;-74
2021/12/21 21:13:40;;;;;;;24.23;10.27;;;0.00;99.90;;;;;;5028929;28;20463;-70
2021/12/21 21:16:07;;;;;;;25.60;12.23;;;0.00;99.90;;;;;;5030335;28;20424;-71
2021/12/21 21:18:33;;;;;;;34.70;16.83;;;0.00;99.90;;;;;;5034725;28;20486;-72
2021/12/21 21:20:59;;;;;;;31.20;14.10;;;-0.10;99.90;;;;;;5029745;28;20448;-71
2021/12/21 21:23:25;;;;;;;16.93;10.13;;;0.20;99.90;;;;;;5028600;28;20178;-72
2021/12/21 21:25:50;;;;;;;19.67;11.53;;;-0.20;99.90;;;;;;5029353;28;20185;-71
2021/12/21 21:28:16;;;;;;;21.47;11.23;;;2.30;99.90;;;;;;5028932;28;20639;-71
2021/12/21 21:30:42;;;;;;;17.40;9.80;;;-0.30;99.90;;;;;;5035730;28;20221;-71
2021/12/21 21:33:08;;;;;;;21.43;11.00;;;-0.30;99.90;;;;;;5025985;28;21115;-77
2021/12/21 21:35:34;;;;;;;14.20;8.83;;;-0.40;99.90;;;;;;5029347;28;20565;-73
2021/12/21 21:37:59;;;;;;;15.13;7.97;;;-0.40;99.90;;;;;;5024428;28;20186;-71
2021/12/21 21:40:25;;;;;;;16.00;8.83;;;-0.50;99.90;;;;;;5026941;28;20186;-71
2021/12/21 21:42:51;;;;;;;10.70;7.13;;;;;;;;;;5029178;28;20200;-72
2021/12/21 21:45:17;;;;;;;14.00;8.47;;;-0.50;99.90;;;;;;5028590;28;20208;-71
2021/12/21 21:47:43;;;;;;;17.83;9.37;;;0.00;99.90;;;;;;5028679;28;20466;-71
2021/12/21 21:50:11;;;;;;;16.93;9.03;;;-0.30;99.90;;;;;;5025936;28;20974;-73
2021/12/21 21:52:38;;;;;;;13.87;7.30;;;-0.50;99.90;;;;;;5026668;28;20201;-71
2021/12/21 21:55:04;;;;;;;14.00;8.17;;;-0.60;99.90;;;;;;5026508;28;21098;-71
2021/12/21 21:57:30;;;;;;;14.87;8.30;;;-0.60;99.90;;;;;;5027756;28;20890;-72
2021/12/21 21:59:55;;;;;;;16.63;9.00;;;-0.50;99.90;;;;;;5034463;28;20432;-73
2021/12/21 22:02:21;;;;;;;17.30;8.93;;;-0.60;99.90;;;;;;5029864;28;20280;-74
2021/12/21 22:04:47;;;;;;;16.07;8.83;;;-0.70;99.90;;;;;;5026425;28;20181;-74
2021/12/21 22:07:14;;;;;;;15.87;8.87;;;-0.60;99.90;;;;;;5027194;28;20463;-72
2021/12/21 22:09:40;;;;;;;12.53;8.03;;;-0.60;99.90;;;;;;5012739;28;20246;-71
2021/12/21 22:12:06;;;;;;;16.47;7.83;;;;;;;;;;5009933;28;20437;-72
2021/12/21 22:14:32;;;;;;;15.87;8.07;;;-0.60;99.90;;;;;;5037022;28;20420;-72
2021/12/21 22:16:58;;;;;;;13.50;8.07;;;-0.50;99.90;;;;;;5048856;28;20770;-73
2021/12/21 22:19:26;;;;;;;12.00;7.90;;;-0.30;99.90;;;;;;5032220;28;20174;-71
2021/12/21 22:21:52;;;;;;;14.77;8.57;;;-0.40;99.90;;;;;;5029478;28;20526;-73
2021/12/21 22:24:18;;;;;;;11.57;7.80;;;0.00;99.90;;;;;;5016823;28;20429;-73
2021/12/21 22:26:43;;;;;;;20.30;8.93;;;-0.40;99.90;;;;;;5024177;28;20452;-74
2021/12/21 22:29:09;;;;;;;16.13;8.63;;;-0.40;99.90;;;;;;5024965;28;20177;-72
2021/12/21 22:31:35;;;;;;;12.07;7.30;;;-0.40;99.90;;;;;;5025857;28;20194;-73
2021/12/21 22:34:01;;;;;;;13.70;7.80;;;-0.50;99.90;;;;;;5022396;28;20185;-71
2021/12/21 22:36:28;;;;;;;15.07;8.80;;;-0.10;99.90;;;;;;5027802;28;20261;-73
2021/12/21 22:38:55;;;;;;;25.53;8.73;;;-0.50;99.90;;;;;;5028508;28;20420;-72
2021/12/21 22:41:23;;;;;;;14.93;8.30;;;-0.50;99.90;;;;;;5027535;28;20444;-70
2021/12/21 22:43:49;;;;;;;16.27;8.90;;;-0.40;99.90;;;;;;5029878;28;20433;-72
2021/12/21 22:46:15;;;;;;;16.33;8.67;;;-0.50;99.90;;;;;;5048637;28;20451;-72
2021/12/21 22:48:41;;;;;;;17.20;9.20;;;-0.10;99.90;;;;;;5027367;28;20416;-71
2021/12/21 22:51:07;;;;;;;15.37;8.33;;;-0.60;99.90;;;;;;5028373;28;20190;-72
2021/12/21 22:53:33;;;;;;;22.43;10.10;;;-0.70;99.90;;;;;;5011768;28;20418;-72
2021/12/21 22:55:59;;;;;;;18.73;9.90;;;-0.20;99.90;;;;;;5022659;28;20473;-74
2021/12/21 22:58:25;;;;;;;20.13;10.07;;;-0.20;99.90;;;;;;5029600;28;20927;-74
2021/12/21 23:00:55;;;;;;;17.53;9.70;;;-0.70;99.90;;;;;;5027608;28;20186;-73